createdAt,value
2018-07-20T00:01:33.189Z,46.00
2018-07-20T00:04:01.541Z,46.00
2018-07-20T00:06:29.920Z,46.10
2018-07-20T00:08:58.237Z,46.10
2018-07-20T00:11:26.533Z,46.10
2018-07-20T00:13:54.879Z,46.10
2018-07-20T00:16:23.529Z,46.20
2018-07-20T00:18:51.891Z,46.20
2018-07-20T00:21:20.247Z,46.20
2018-07-20T00:23:48.518Z,46.30
2018-07-20T00:26:16.802Z,46.40
2018-07-20T00:28:45.074Z,46.40
2018-07-20T00:31:13.378Z,46.30
2018-07-20T00:33:41.779Z,46.40
2018-07-20T00:36:10.040Z,46.40
2018-07-20T00:38:38.514Z,46.40
2018-07-20T00:43:59.641Z,46.50
2018-07-20T00:46:28.003Z,46.50
2018-07-20T00:48:56.309Z,46.60
2018-07-20T00:51:24.638Z,46.50
2018-07-20T00:56:20.984Z,46.60
2018-07-20T00:58:49.329Z,46.60
2018-07-20T01:01:17.646Z,46.60
2018-07-20T01:03:45.977Z,47.30
2018-07-20T01:06:14.261Z,46.60
2018-07-20T01:08:42.535Z,46.70
2018-07-20T01:11:10.853Z,46.70
2018-07-20T01:13:39.164Z,46.70
2018-07-20T01:16:07.461Z,46.80
2018-07-20T01:18:36.040Z,46.80
2018-07-20T01:21:04.978Z,46.90
2018-07-20T01:23:33.289Z,46.90
2018-07-20T01:26:01.605Z,47.00
2018-07-20T01:30:57.905Z,46.90
2018-07-20T01:33:26.219Z,47.40
2018-07-20T01:35:54.520Z,47.10
2018-07-20T01:38:22.785Z,47.10
2018-07-20T01:40:51.523Z,47.20
2018-07-20T01:43:19.837Z,47.20
2018-07-20T01:45:48.105Z,47.20
2018-07-20T01:48:16.811Z,47.30
2018-07-20T01:50:45.121Z,47.10
2018-07-20T01:53:13.431Z,47.30
2018-07-20T01:55:41.700Z,47.30
2018-07-20T02:00:37.974Z,47.50
2018-07-20T02:03:06.838Z,47.50
2018-07-20T02:05:35.164Z,47.40
2018-07-20T02:08:03.476Z,47.50
2018-07-20T02:10:31.763Z,47.50
2018-07-20T02:13:00.112Z,47.60
2018-07-20T02:15:28.542Z,47.60
2018-07-20T02:17:56.829Z,47.60
2018-07-20T02:20:25.480Z,47.70
2018-07-20T02:22:53.841Z,47.70
2018-07-20T02:25:22.236Z,47.70
2018-07-20T02:27:50.544Z,47.70
2018-07-20T02:30:18.853Z,47.80
2018-07-20T02:32:47.109Z,47.70
2018-07-20T02:35:15.402Z,47.80
2018-07-20T02:37:43.933Z,47.80
2018-07-20T02:40:12.259Z,47.70
2018-07-20T02:42:40.526Z,47.80
2018-07-20T02:45:08.889Z,48.00
2018-07-20T02:47:37.275Z,48.00
2018-07-20T02:50:05.625Z,47.90
2018-07-20T02:52:33.936Z,47.90
2018-07-20T02:55:02.281Z,47.90
2018-07-20T02:57:30.610Z,48.10
2018-07-20T02:59:58.946Z,48.10
2018-07-20T03:02:27.285Z,48.10
2018-07-20T03:04:55.553Z,48.10
2018-07-20T03:07:23.854Z,48.00
2018-07-20T03:09:52.161Z,48.20
2018-07-20T03:12:20.420Z,48.10
2018-07-20T03:14:48.725Z,48.10
2018-07-20T03:17:16.982Z,48.20
2018-07-20T03:19:45.298Z,48.30
2018-07-20T03:22:13.622Z,48.30
2018-07-20T03:24:41.939Z,48.30
2018-07-20T03:27:10.221Z,48.20
2018-07-20T03:29:38.505Z,48.20
2018-07-20T03:32:07.184Z,48.20
2018-07-20T03:34:35.467Z,48.30
2018-07-20T03:37:03.746Z,48.40
2018-07-20T03:39:32.063Z,48.40
2018-07-20T03:42:00.348Z,48.40
2018-07-20T03:46:56.738Z,48.40
2018-07-20T03:49:25.108Z,48.50
2018-07-20T03:51:53.345Z,48.50
2018-07-20T03:54:21.676Z,48.60
2018-07-20T03:56:49.998Z,48.50
2018-07-20T03:59:18.733Z,48.50
2018-07-20T04:01:47.002Z,48.50
2018-07-20T04:04:15.280Z,48.50
2018-07-20T04:06:43.593Z,48.50
2018-07-20T04:09:12.185Z,48.50
2018-07-20T04:11:41.101Z,48.60
2018-07-20T04:14:09.433Z,48.60
2018-07-20T04:16:38.040Z,48.50
2018-07-20T04:19:06.540Z,48.50
2018-07-20T04:21:34.858Z,48.50
2018-07-20T04:24:03.183Z,48.50
2018-07-20T04:26:31.440Z,48.60
2018-07-20T04:28:59.749Z,48.50
2018-07-20T04:31:28.018Z,48.50
2018-07-20T04:33:56.286Z,48.50
2018-07-20T04:36:24.814Z,48.50
2018-07-20T04:38:53.062Z,48.50
2018-07-20T04:41:21.341Z,48.70
2018-07-20T04:43:49.629Z,48.60
2018-07-20T04:46:17.937Z,49.20
2018-07-20T04:48:46.230Z,48.50
2018-07-20T04:51:14.499Z,48.50
2018-07-20T04:53:42.819Z,48.60
2018-07-20T04:56:11.078Z,48.60
2018-07-20T04:58:39.396Z,48.50
2018-07-20T05:01:07.692Z,48.50
2018-07-20T05:03:36.001Z,48.40
2018-07-20T05:06:04.273Z,48.40
2018-07-20T05:08:32.554Z,48.40
2018-07-20T05:13:28.833Z,48.50
2018-07-20T05:15:57.126Z,48.40
2018-07-20T05:18:25.447Z,48.30
2018-07-20T05:20:53.773Z,48.30
2018-07-20T05:23:22.073Z,48.40
2018-07-20T05:25:50.450Z,48.30
2018-07-20T05:28:18.802Z,48.20
2018-07-20T05:30:47.126Z,48.20
2018-07-20T05:33:15.504Z,48.20
2018-07-20T05:35:43.891Z,48.10
2018-07-20T05:38:12.242Z,48.10
2018-07-20T05:40:40.477Z,48.10
2018-07-20T05:43:10.109Z,48.00
2018-07-20T05:45:39.690Z,48.00
2018-07-20T05:48:07.950Z,47.80
2018-07-20T05:50:36.212Z,47.80
2018-07-20T05:53:04.483Z,47.60
2018-07-20T05:55:32.769Z,47.80
2018-07-20T05:58:01.057Z,47.50
2018-07-20T06:00:29.429Z,47.60
2018-07-20T06:02:57.749Z,47.70
2018-07-20T06:05:26.092Z,47.60
2018-07-20T06:07:54.342Z,47.40
2018-07-20T06:10:22.617Z,47.50
2018-07-20T06:12:50.907Z,47.40
2018-07-20T06:15:19.228Z,47.50
2018-07-20T06:17:47.718Z,47.50
2018-07-20T06:20:16.043Z,47.40
2018-07-20T06:22:44.305Z,47.40
2018-07-20T06:25:12.801Z,47.40
2018-07-20T06:27:41.051Z,47.40
2018-07-20T06:30:09.389Z,48.10
2018-07-20T06:32:37.843Z,47.50
2018-07-20T06:35:06.259Z,47.50
2018-07-20T06:37:34.574Z,47.50
2018-07-20T06:42:30.891Z,48.00
2018-07-20T06:44:59.167Z,48.30
2018-07-20T06:47:28.610Z,47.80
2018-07-20T06:49:56.914Z,47.70
2018-07-20T06:52:25.233Z,47.70
2018-07-20T06:54:53.531Z,47.90
2018-07-20T06:57:21.838Z,47.70
2018-07-20T06:59:50.114Z,47.70
2018-07-20T07:02:18.935Z,47.60
2018-07-20T07:04:47.193Z,49.40
2018-07-20T07:07:15.531Z,47.90
2018-07-20T07:09:43.795Z,47.70
2018-07-20T07:12:12.134Z,49.10
2018-07-20T07:14:40.547Z,47.90
2018-07-20T07:17:08.843Z,48.00
2018-07-20T07:19:37.150Z,48.90
2018-07-20T07:22:05.421Z,47.60
2018-07-20T07:24:33.735Z,47.70
2018-07-20T07:27:02.005Z,48.40
2018-07-20T07:29:30.375Z,49.60
2018-07-20T07:31:58.849Z,49.00
2018-07-20T07:34:27.161Z,49.00
2018-07-20T07:37:02.108Z,48.50
2018-07-20T07:39:30.432Z,48.20
2018-07-20T07:41:58.709Z,48.20
2018-07-20T07:44:27.005Z,48.20
2018-07-20T07:46:55.298Z,48.00
2018-07-20T07:49:24.281Z,48.00
2018-07-20T07:51:52.556Z,48.00
2018-07-20T07:54:20.817Z,48.00
2018-07-20T07:56:49.415Z,48.10
2018-07-20T07:59:17.706Z,47.90
2018-07-20T08:01:46.099Z,47.90
2018-07-20T08:04:14.378Z,47.80
2018-07-20T08:06:42.721Z,48.00
2018-07-20T08:09:12.897Z,47.90
2018-07-20T08:11:41.677Z,47.70
2018-07-20T08:14:11.293Z,47.80
2018-07-20T08:16:39.580Z,47.70
2018-07-20T08:19:07.931Z,47.60
2018-07-20T08:21:36.821Z,48.30
2018-07-20T08:24:05.133Z,47.60
2018-07-20T08:26:33.475Z,47.60
2018-07-20T08:29:01.733Z,47.40
2018-07-20T08:31:30.047Z,47.50
2018-07-20T08:33:58.313Z,47.20
2018-07-20T08:36:26.618Z,47.30
2018-07-20T08:38:54.911Z,47.10
2018-07-20T08:41:23.203Z,47.10
2018-07-20T08:43:51.829Z,46.90
2018-07-20T08:46:20.111Z,46.80
2018-07-20T08:48:48.708Z,46.80
2018-07-20T08:51:17.017Z,46.70
2018-07-20T08:53:45.347Z,46.80
2018-07-20T08:56:13.649Z,46.80
2018-07-20T08:58:41.946Z,46.70
2018-07-20T09:01:10.206Z,46.60
2018-07-20T09:03:38.550Z,46.50
2018-07-20T09:06:06.749Z,46.50
2018-07-20T09:08:35.049Z,46.40
2018-07-20T09:11:03.373Z,46.30
2018-07-20T09:15:59.809Z,46.30
2018-07-20T09:18:28.127Z,45.20
2018-07-20T09:23:24.528Z,46.60
2018-07-20T09:25:52.786Z,45.90
2018-07-20T09:28:21.096Z,45.30
2018-07-20T09:30:49.348Z,45.50
2018-07-20T09:33:17.658Z,45.40
2018-07-20T09:35:45.998Z,45.60
2018-07-20T09:38:14.296Z,45.20
2018-07-20T09:40:42.566Z,45.50
2018-07-20T09:43:10.836Z,45.50
2018-07-20T09:45:39.134Z,45.30
2018-07-20T09:48:07.425Z,44.00
2018-07-20T09:50:35.852Z,45.10
2018-07-20T09:53:04.126Z,45.20
2018-07-20T09:55:32.410Z,45.60
2018-07-20T09:58:00.694Z,44.60
2018-07-20T10:00:34.401Z,45.50
2018-07-20T10:03:02.678Z,45.00
2018-07-20T10:05:30.967Z,42.00
2018-07-20T10:07:59.365Z,44.50
2018-07-20T10:10:27.648Z,44.80
2018-07-20T10:12:55.934Z,44.40
2018-07-20T10:15:24.234Z,43.80
2018-07-20T10:17:52.522Z,43.10
2018-07-20T10:20:23.665Z,44.30
2018-07-20T10:22:52.001Z,44.40
2018-07-20T10:25:20.282Z,44.40
2018-07-20T10:27:48.563Z,43.80
2018-07-20T10:30:16.877Z,44.70
2018-07-20T10:32:45.218Z,42.60
2018-07-20T10:35:13.494Z,44.50
2018-07-20T10:37:41.847Z,44.40
2018-07-20T10:40:10.135Z,44.30
2018-07-20T10:42:38.390Z,43.30
2018-07-20T10:45:06.838Z,39.80
2018-07-20T10:47:35.110Z,42.70
2018-07-20T10:50:03.413Z,41.80
2018-07-20T10:52:31.726Z,43.30
2018-07-20T10:55:00.031Z,43.70
2018-07-20T10:57:28.313Z,44.00
2018-07-20T10:59:56.622Z,43.80
2018-07-20T11:02:24.938Z,43.30
2018-07-20T11:04:53.242Z,43.10
2018-07-20T11:07:21.565Z,43.60
2018-07-20T11:09:49.801Z,42.40
2018-07-20T11:12:18.098Z,42.50
2018-07-20T11:14:46.367Z,42.40
2018-07-20T11:17:14.640Z,43.20
2018-07-20T11:19:42.921Z,42.10
2018-07-20T11:22:11.213Z,41.80
2018-07-20T11:24:39.649Z,42.50
2018-07-20T11:27:07.965Z,42.80
2018-07-20T11:29:36.274Z,41.60
2018-07-20T11:32:04.618Z,41.00
2018-07-20T11:37:01.233Z,40.70
2018-07-20T11:39:30.785Z,42.40
2018-07-20T11:41:59.174Z,42.90
2018-07-20T11:44:27.638Z,41.60
2018-07-20T11:46:55.975Z,41.10
2018-07-20T11:49:24.301Z,40.30
2018-07-20T11:51:52.585Z,39.00
2018-07-20T11:54:21.074Z,42.90
2018-07-20T11:56:49.375Z,43.10
2018-07-20T11:59:17.646Z,43.30
2018-07-20T12:01:46.104Z,43.20
2018-07-20T12:04:14.510Z,42.60
2018-07-20T12:06:42.869Z,43.00
2018-07-20T12:09:12.429Z,41.30
2018-07-20T12:11:41.688Z,43.50
2018-07-20T12:14:10.027Z,43.50
2018-07-20T12:16:38.606Z,42.60
2018-07-20T12:19:07.356Z,43.00
2018-07-20T12:21:36.106Z,39.80
2018-07-20T12:24:05.121Z,42.70
2018-07-20T12:26:33.648Z,42.40
2018-07-20T12:29:01.915Z,43.10
2018-07-20T12:31:30.239Z,40.20
2018-07-20T12:33:58.654Z,42.20
2018-07-20T12:36:27.123Z,41.30
2018-07-20T12:38:55.478Z,41.10
2018-07-20T12:41:23.974Z,41.60
2018-07-20T12:43:52.274Z,40.90
2018-07-20T12:46:20.837Z,41.60
2018-07-20T12:48:49.130Z,42.00
2018-07-20T12:51:17.478Z,42.60
2018-07-20T12:53:45.979Z,39.60
2018-07-20T12:58:42.508Z,38.00
2018-07-20T13:01:10.870Z,41.80
2018-07-20T13:03:39.220Z,41.70
2018-07-20T13:06:07.637Z,41.20
2018-07-20T13:08:35.948Z,41.30
2018-07-20T13:11:04.314Z,41.00
2018-07-20T13:13:32.974Z,41.90
2018-07-20T13:16:01.353Z,42.40
2018-07-20T13:18:29.752Z,42.80
2018-07-20T13:20:58.466Z,42.80
2018-07-20T13:23:26.941Z,42.80
2018-07-20T13:25:55.516Z,41.70
2018-07-20T13:28:23.914Z,40.50
2018-07-20T13:30:52.188Z,39.20
2018-07-20T13:33:21.663Z,41.80
2018-07-20T13:35:50.729Z,42.50
2018-07-20T13:38:20.031Z,41.90
2018-07-20T13:40:51.355Z,42.50
2018-07-20T13:43:21.425Z,42.50
2018-07-20T13:45:51.031Z,42.00
2018-07-20T13:48:21.578Z,42.40
2018-07-20T13:50:51.110Z,42.40
2018-07-20T13:53:20.995Z,42.40
2018-07-20T13:55:50.948Z,42.20
2018-07-20T13:58:20.179Z,43.30
2018-07-20T14:00:51.057Z,42.70
2018-07-20T14:03:22.113Z,41.90
2018-07-20T14:05:53.852Z,41.20
2018-07-20T14:10:54.313Z,41.10
2018-07-20T14:13:26.546Z,41.50
2018-07-20T14:16:00.283Z,41.00
2018-07-20T14:18:30.044Z,40.30
2018-07-20T14:20:59.258Z,41.70
2018-07-20T14:23:29.202Z,39.70
2018-07-20T14:25:59.179Z,42.00
2018-07-20T14:28:28.431Z,42.30
2018-07-20T14:30:57.305Z,40.70
2018-07-20T14:33:26.340Z,42.00
2018-07-20T14:35:54.927Z,41.00
2018-07-20T14:38:24.240Z,38.60
2018-07-20T14:40:53.834Z,41.60
2018-07-20T14:43:22.784Z,41.10
2018-07-20T14:45:51.744Z,40.30
2018-07-20T14:48:20.937Z,42.40
2018-07-20T14:50:49.615Z,42.00
2018-07-20T14:53:18.569Z,40.20
2018-07-20T14:55:47.434Z,40.70
2018-07-20T14:58:16.112Z,41.70
2018-07-20T15:00:44.963Z,38.70
2018-07-20T15:03:13.693Z,39.40
2018-07-20T15:05:42.513Z,42.80
2018-07-20T15:08:11.741Z,41.40
2018-07-20T15:10:40.411Z,42.50
2018-07-20T15:13:09.086Z,43.10
2018-07-20T15:15:37.850Z,42.90
2018-07-20T15:18:07.115Z,42.40
2018-07-20T15:20:36.687Z,43.60
2018-07-20T15:23:05.522Z,44.20
2018-07-20T15:25:34.373Z,46.00
2018-07-20T15:28:03.947Z,45.80
2018-07-20T15:30:32.640Z,47.60
2018-07-20T15:33:01.313Z,49.10
2018-07-20T15:35:29.986Z,50.60
2018-07-20T15:37:58.762Z,48.20
2018-07-20T15:40:27.978Z,48.30
2018-07-20T15:42:56.848Z,47.70
2018-07-20T15:45:25.792Z,47.40
2018-07-20T15:47:54.473Z,47.30
2018-07-20T15:50:23.417Z,48.20
2018-07-20T15:53:36.265Z,50.80
2018-07-20T15:55:20.779Z,50.20
2018-07-20T15:57:49.921Z,49.10
2018-07-20T16:00:18.770Z,48.70
2018-07-20T16:02:48.463Z,48.70
2018-07-20T16:05:19.199Z,48.50
2018-07-20T16:07:48.187Z,52.10
2018-07-20T16:10:17.472Z,55.10
2018-07-20T16:15:16.259Z,52.90
2018-07-20T16:17:45.651Z,51.30
2018-07-20T16:20:14.885Z,50.40
2018-07-20T16:22:44.022Z,49.10
2018-07-20T16:25:12.642Z,49.30
2018-07-20T16:27:40.942Z,54.10
2018-07-20T16:30:09.580Z,51.20
2018-07-20T16:32:38.069Z,50.50
2018-07-20T16:35:06.585Z,50.50
2018-07-20T16:37:34.938Z,50.50
2018-07-20T16:40:03.329Z,51.40
2018-07-20T16:42:32.108Z,50.30
2018-07-20T16:45:00.458Z,50.50
2018-07-20T16:47:28.829Z,51.80
2018-07-20T16:49:57.313Z,53.00
2018-07-20T16:52:25.656Z,51.70
2018-07-20T16:54:54.135Z,52.30
2018-07-20T16:57:22.427Z,51.50
2018-07-20T16:59:50.684Z,52.00
2018-07-20T17:02:19.014Z,52.40
2018-07-20T17:04:48.386Z,52.90
2018-07-20T17:07:16.677Z,52.50
2018-07-20T17:09:45.114Z,52.20
2018-07-20T17:12:13.649Z,52.80
2018-07-20T17:14:41.934Z,52.40
2018-07-20T17:17:10.190Z,52.50
2018-07-20T17:19:38.481Z,52.70
2018-07-20T17:22:07.149Z,52.70
2018-07-20T17:27:03.509Z,51.80
2018-07-20T17:29:31.819Z,51.80
2018-07-20T17:32:00.560Z,52.30
2018-07-20T17:34:28.836Z,52.10
2018-07-20T17:36:57.137Z,53.40
2018-07-20T17:39:25.421Z,53.50
2018-07-20T17:41:53.729Z,53.40
2018-07-20T17:44:22.000Z,52.90
2018-07-20T17:49:18.330Z,53.50
2018-07-20T17:51:46.613Z,54.30
2018-07-20T17:54:14.909Z,53.10
2018-07-20T17:59:11.221Z,53.10
2018-07-20T18:01:39.533Z,52.80
2018-07-20T18:04:07.813Z,52.50
2018-07-20T18:06:36.143Z,52.50
2018-07-20T18:09:07.249Z,52.40
2018-07-20T18:11:35.537Z,53.30
2018-07-20T18:14:03.847Z,52.10
2018-07-20T18:16:32.178Z,52.10
2018-07-20T18:19:00.438Z,52.40
2018-07-20T18:21:28.765Z,52.10
2018-07-20T18:23:57.322Z,52.00
2018-07-20T18:26:25.662Z,51.90
2018-07-20T18:28:53.973Z,51.90
2018-07-20T18:31:22.267Z,52.00
2018-07-20T18:33:50.689Z,52.20
2018-07-20T18:36:18.877Z,52.00
2018-07-20T18:38:47.209Z,52.00
2018-07-20T18:41:15.501Z,53.10
2018-07-20T18:43:43.830Z,52.70
2018-07-20T18:46:12.104Z,53.10
2018-07-20T18:48:40.379Z,53.00
2018-07-20T18:51:08.720Z,52.30
2018-07-20T18:53:36.994Z,52.30
2018-07-20T18:56:05.375Z,52.50
2018-07-20T18:58:33.613Z,52.30
2018-07-20T19:01:02.015Z,52.10
2018-07-20T19:03:30.321Z,52.00
2018-07-20T19:05:58.637Z,52.00
2018-07-20T19:08:26.969Z,51.90
2018-07-20T19:10:55.299Z,52.30
2018-07-20T19:13:23.608Z,51.90
2018-07-20T19:15:51.843Z,52.00
2018-07-20T19:18:20.115Z,52.00
2018-07-20T19:20:48.442Z,52.00
2018-07-20T19:23:16.746Z,52.10
2018-07-20T19:25:45.113Z,52.10
2018-07-20T19:28:13.412Z,52.20
2018-07-20T19:30:41.693Z,52.20
2018-07-20T19:33:09.981Z,52.30
2018-07-20T19:35:38.274Z,52.40
2018-07-20T19:38:06.597Z,53.20
2018-07-20T19:40:34.909Z,52.60
2018-07-20T19:43:03.199Z,52.60
2018-07-20T19:45:31.486Z,52.60
2018-07-20T19:47:59.764Z,52.60
2018-07-20T19:50:28.017Z,52.70
2018-07-20T19:52:56.324Z,52.70
2018-07-20T19:55:24.609Z,52.70
2018-07-20T19:57:53.321Z,52.70
2018-07-20T20:00:21.593Z,52.70
2018-07-20T20:02:49.887Z,52.90
2018-07-20T20:05:18.219Z,53.00
2018-07-20T20:07:46.473Z,52.90
2018-07-20T20:10:14.762Z,53.00
2018-07-20T20:12:43.093Z,53.10
2018-07-20T20:15:11.402Z,53.00
2018-07-20T20:17:40.006Z,53.20
2018-07-20T20:20:10.304Z,53.10
2018-07-20T20:22:38.595Z,53.20
2018-07-20T20:25:06.876Z,53.20
2018-07-20T20:27:35.197Z,53.20
2018-07-20T20:30:03.496Z,53.20
2018-07-20T20:32:31.777Z,53.30
2018-07-20T20:35:00.066Z,53.30
2018-07-20T20:37:28.383Z,53.30
2018-07-20T20:39:56.641Z,53.40
2018-07-20T20:42:24.914Z,53.30
2018-07-20T20:44:53.161Z,53.30
2018-07-20T20:47:21.482Z,60.70
2018-07-20T20:49:49.789Z,59.00
2018-07-20T20:52:18.375Z,59.50
2018-07-20T20:54:46.625Z,59.20
2018-07-20T20:57:14.926Z,58.80
2018-07-20T20:59:43.798Z,58.30
2018-07-20T21:02:12.130Z,58.50
2018-07-20T21:04:40.450Z,57.80
2018-07-20T21:07:08.738Z,57.30
2018-07-20T21:09:37.053Z,57.10
2018-07-20T21:12:05.673Z,56.90
2018-07-20T21:14:33.791Z,56.70
2018-07-20T21:17:02.081Z,56.50
2018-07-20T21:19:30.485Z,56.60
2018-07-20T21:21:59.017Z,56.60
2018-07-20T21:24:27.620Z,56.40
2018-07-20T21:26:56.204Z,56.40
2018-07-20T21:29:24.536Z,56.30
2018-07-20T21:31:53.340Z,56.40
2018-07-20T21:34:21.981Z,56.20
2018-07-20T21:39:18.768Z,56.20
2018-07-20T21:41:47.558Z,56.30
2018-07-20T21:44:16.121Z,57.00
2018-07-20T21:46:44.746Z,56.50
2018-07-20T21:49:13.467Z,56.50
2018-07-20T21:51:41.774Z,56.30
2018-07-20T21:54:10.349Z,56.30
2018-07-20T21:56:38.655Z,56.30
2018-07-20T21:59:06.965Z,56.20
2018-07-20T22:01:35.377Z,57.00
2018-07-20T22:04:04.657Z,56.10
2018-07-20T22:06:33.213Z,56.20
2018-07-20T22:09:01.490Z,56.20
2018-07-20T22:11:29.797Z,56.10
2018-07-20T22:13:58.083Z,56.20
2018-07-20T22:16:26.390Z,56.20
2018-07-20T22:18:54.629Z,56.20
2018-07-20T22:21:22.916Z,56.20
2018-07-20T22:23:51.182Z,56.60
2018-07-20T22:26:19.514Z,56.30
2018-07-20T22:28:47.821Z,56.50
2018-07-20T22:31:16.182Z,56.60
2018-07-20T22:33:44.442Z,56.30
2018-07-20T22:36:13.078Z,56.20
2018-07-20T22:38:41.342Z,56.10
2018-07-20T22:41:09.641Z,56.10
2018-07-20T22:43:37.972Z,56.00
2018-07-20T22:46:06.873Z,56.00
2018-07-20T22:48:35.143Z,56.00
2018-07-20T22:51:03.634Z,56.00
2018-07-20T22:53:31.937Z,56.10
2018-07-20T22:56:00.197Z,56.00
2018-07-20T22:58:28.475Z,56.00
2018-07-20T23:00:56.760Z,55.90
2018-07-20T23:03:25.133Z,55.90
2018-07-20T23:05:53.441Z,56.80
2018-07-20T23:08:21.760Z,56.10
2018-07-20T23:10:50.053Z,56.00
2018-07-20T23:13:18.380Z,55.80
2018-07-20T23:15:46.662Z,55.80
2018-07-20T23:18:15.049Z,55.90
2018-07-20T23:20:43.423Z,55.80
2018-07-20T23:23:11.664Z,55.70
2018-07-20T23:25:39.941Z,55.90
2018-07-20T23:28:08.230Z,55.80
2018-07-20T23:30:36.500Z,55.80
2018-07-20T23:33:04.788Z,55.70
2018-07-20T23:35:33.057Z,56.10
2018-07-20T23:38:01.344Z,55.70
2018-07-20T23:40:29.621Z,55.80
2018-07-20T23:42:57.918Z,55.90
2018-07-20T23:45:26.180Z,55.70
2018-07-20T23:47:54.477Z,55.70
2018-07-20T23:50:22.744Z,55.70
2018-07-20T23:52:51.065Z,55.70
2018-07-20T23:55:19.371Z,55.70
2018-07-20T23:57:47.711Z,55.70
